Dobrodošli na spletni strani vremenske postaje Senovo. Vse informacije so informativnega značaja, saj vremenska postaja ni del državne mreže meteoroloških postaj. AKTUALNIH OBVESTIL NI.


Sneg/Led Od: 23-02-2018 00:00 Do: 23:59 Opozorilo za: Sneg/Led Stopnja: Rumena info button

Pogled proti Armezu več informacij Pogled proti Armezu


Lisca več informacij Lisca


Radar strel več informacij blitzortung!


opozorilo za sneg/led več informacij rain snow radar


Obiščite še:

Template documentation
and downloads

And another site



Weather Underground, zgodovina - Tekstovno

Dnevni povzetek za Januar 2, 2018 Enote:  Metrično    Angleško   Obe
« Predhodni Dan
Naslednji Dan »
Dnevni Tedenski Mesečni Letni Po meri
  Višja: Nižja: Povprečje:
Temperatura: -17.8 °C -17.1 °C -15.8 °C
Točka rosišča: -17.8 °C -17.4 °C -16.3 °C
Vlažnost: Humidity % 88 % 93 %
Hitrost vetra: 0 km/h 0 km/h 1.4 km/h
Sunki vetra: 0 km/h - -
Veter:- - SW
Zračni tlak: 0 hPa 34029.3 hPa -
Padavine: 76.2 mm    
Historical Graphs
 
 
Tabelarni podarki za Januar 2, 2018
Čas Temperatura Točka rosišča Zračni tlak Veter Hitrost vetra Sunki vetra Vlažnost Intenziteta padavin (urna)
-17.8 °C -17.8 °C 0 hPa Calm     Humidity % 0 mm
00:00 -15.2 °C -16.2 °C 34097 hPa East 9 km/h 16.9 km/h 88 % 33.02 mm
00:02 -15.2 °C -16.2 °C 34097 hPa ENE 8 km/h 15 km/h 88 % 25.4 mm
00:07 -15.3 °C -16.3 °C 34097 hPa ENE 5.5 km/h 9.8 km/h 88 % 25.4 mm
00:09 -15.3 °C -16.3 °C 34097 hPa ENE 5.5 km/h 12.7 km/h 88 % 20.32 mm
00:14 -15.3 °C -16.3 °C 34063.2 hPa ESE 7.2 km/h 16.3 km/h 88 % 12.7 mm
00:19 -15.2 °C -16.2 °C 34063.2 hPa East 9.8 km/h 16.3 km/h 88 % 7.62 mm
00:22 -15.2 °C -16.2 °C 34063.2 hPa ENE 10.9 km/h 16.3 km/h 88 % 7.62 mm
00:24 -15.2 °C -16.2 °C 34063.2 hPa NE 11.1 km/h 16.3 km/h 88 % 7.62 mm
00:26 -15.3 °C -16.3 °C 34063.2 hPa NE 10.9 km/h 16.3 km/h 88 % 12.7 mm
00:27 -15.3 °C -16.3 °C 34063.2 hPa NE 10.6 km/h 16.3 km/h 88 % 12.7 mm
00:32 -15.3 °C -16.3 °C 34063.2 hPa WSW 10.6 km/h 16.9 km/h 88 % 7.62 mm
00:37 -15.3 °C -16.3 °C 34063.2 hPa SW 7.6 km/h 16.9 km/h 89 % 7.62 mm
00:38 -15.3 °C -16.3 °C 34063.2 hPa SW 7.6 km/h 16.9 km/h 89 % 7.62 mm
00:39 -15.3 °C -16.3 °C 34063.2 hPa SW 6.9 km/h 16.9 km/h 89 % 7.62 mm
00:44 -15.3 °C -16.3 °C 34063.2 hPa SW 1.8 km/h 9.3 km/h 89 % 12.7 mm
00:45 -15.3 °C -16.3 °C 34063.2 hPa SW 1.8 km/h 9.3 km/h 89 % 12.7 mm
00:50 -15.3 °C -16.3 °C 34063.2 hPa WSW 1.8 km/h 11.1 km/h 89 % 12.7 mm
00:52 -15.3 °C -16.3 °C 34063.2 hPa SW 3.4 km/h 11.1 km/h 89 % 12.7 mm
00:57 -15.4 °C -16.3 °C 34063.2 hPa SW 4.7 km/h 11.1 km/h 89 % 12.7 mm
01:00 -15.4 °C -16.3 °C 34063.2 hPa SW 3.9 km/h 11.1 km/h 89 % 12.7 mm
01:05 -15.4 °C -16.3 °C 34063.2 hPa WSW 2.1 km/h 8 km/h 89 % 12.7 mm
01:10 -15.4 °C -16.3 °C 34063.2 hPa WSW 4.2 km/h 8.9 km/h 89 % 12.7 mm
01:15 -15.4 °C -16.3 °C 34063.2 hPa SW 5.6 km/h 8.9 km/h 90 % 20.32 mm
01:20 -15.4 °C -16.3 °C 34063.2 hPa SW 3.9 km/h 8.9 km/h 90 % 20.32 mm
01:22 -15.4 °C -16.3 °C 34063.2 hPa WSW 2.6 km/h 7.6 km/h 90 % 25.4 mm
01:24 -15.4 °C -16.3 °C 34063.2 hPa West 1.6 km/h 6.4 km/h 90 % 25.4 mm
01:29 -15.4 °C -16.3 °C 34063.2 hPa Calm     90 % 25.4 mm
01:31 -15.4 °C -16.3 °C 34063.2 hPa SSW 0.5 km/h 6.4 km/h 90 % 25.4 mm
01:36 -15.5 °C -16.3 °C 34063.2 hPa SW 1.8 km/h 8 km/h 90 % 33.02 mm
01:39 -15.5 °C -16.3 °C 34063.2 hPa WSW 2.9 km/h 8 km/h 90 % 33.02 mm
01:44 -15.5 °C -16.3 °C 34063.2 hPa SW 3.9 km/h 9.8 km/h 90 % 25.4 mm
01:46 -15.5 °C -16.3 °C 34063.2 hPa WSW 4.7 km/h 9.8 km/h 90 % 25.4 mm
01:51 -15.5 °C -16.2 °C 34063.2 hPa SW 5.6 km/h 9.8 km/h 91 % 33.02 mm
01:54 -15.5 °C -16.2 °C 34063.2 hPa WSW 6.3 km/h 9.3 km/h 91 % 33.02 mm
01:56 -15.5 °C -16.2 °C 34063.2 hPa SW 5 km/h 9.3 km/h 91 % 38.1 mm
02:01 -15.6 °C -16.3 °C 34063.2 hPa WSW 2.6 km/h 9.3 km/h 91 % 38.1 mm
02:04 -15.6 °C -16.3 °C 34063.2 hPa Calm     91 % 38.1 mm
02:09 -15.6 °C -16.3 °C 34063.2 hPa South 0.3 km/h 4.2 km/h 91 % 45.72 mm
02:10 -15.6 °C -16.3 °C 34063.2 hPa South 0.3 km/h 4.2 km/h 91 % 45.72 mm
02:15 -15.6 °C -16.3 °C 34063.2 hPa South 0.3 km/h 4.2 km/h 91 % 45.72 mm
02:16 -15.6 °C -16.3 °C 34063.2 hPa South 0.3 km/h 4.2 km/h 91 % 45.72 mm
02:21 -15.6 °C -16.3 °C 34063.2 hPa Calm     91 % 45.72 mm
02:24 -15.6 °C -16.3 °C 34063.2 hPa Calm     91 % 45.72 mm
02:29 -15.6 °C -16.3 °C 34063.2 hPa SSE 0.8 km/h 8.9 km/h 91 % 33.02 mm
02:30 -15.6 °C -16.3 °C 34063.2 hPa SSE 1.3 km/h 8.9 km/h 91 % 33.02 mm
02:35 -15.6 °C -16.2 °C 34063.2 hPa SSE 1.6 km/h 8.9 km/h 92 % 33.02 mm
02:39 -15.6 °C -16.3 °C 34063.2 hPa SSE 0.8 km/h 5.6 km/h 92 % 33.02 mm
02:40 -15.6 °C -16.3 °C 34063.2 hPa South 0.3 km/h 5.6 km/h 92 % 33.02 mm
02:44 -15.6 °C -16.3 °C 34063.2 hPa ESE 0.8 km/h 7.6 km/h 92 % 25.4 mm
02:46 -15.6 °C -16.3 °C 34063.2 hPa ESE 0.8 km/h 7.6 km/h 92 % 25.4 mm
02:51 -15.6 °C -16.3 °C 34063.2 hPa ESE 0.8 km/h 7.6 km/h 92 % 25.4 mm
02:56 -15.7 °C -16.3 °C 34063.2 hPa Calm     92 % 12.7 mm
02:57 -15.7 °C -16.3 °C 34063.2 hPa Calm     92 % 12.7 mm
03:02 -15.7 °C -16.2 °C 34063.2 hPa SW 1 km/h 5.6 km/h 93 % 12.7 mm
03:07 -15.7 °C -16.2 °C 34063.2 hPa SW 1 km/h 5.6 km/h 93 % 20.32 mm
03:13 -15.7 °C -16.2 °C 34063.2 hPa Calm   6.4 km/h 93 % 20.32 mm
03:18 -15.7 °C -16.2 °C 34063.2 hPa WSW 2.1 km/h 6.9 km/h 93 % 12.7 mm
03:19 -15.7 °C -16.2 °C 34063.2 hPa WSW 2.1 km/h 6.9 km/h 93 % 12.7 mm
03:24 -15.7 °C -16.2 °C 34063.2 hPa WSW 2.9 km/h 7.6 km/h 93 % 7.62 mm
03:26 -15.7 °C -16.2 °C 34063.2 hPa WSW 2.9 km/h 7.6 km/h 93 % 7.62 mm
03:31 -15.7 °C -16.2 °C 34063.2 hPa SW 2.9 km/h 7.6 km/h 93 % 7.62 mm
03:32 -15.7 °C -16.2 °C 34063.2 hPa SW 2.9 km/h 7.6 km/h 93 % 7.62 mm
03:37 -15.7 °C -16.3 °C 34063.2 hPa WSW 0.3 km/h 3.4 km/h 93 % 7.62 mm
03:38 -15.7 °C -16.3 °C 34063.2 hPa North 0.3 km/h   93 % 7.62 mm
03:43 -15.7 °C -16.3 °C 34097 hPa Calm     93 % 7.62 mm
03:44 -15.7 °C -16.3 °C 34097 hPa Calm     93 % 7.62 mm
03:49 -15.7 °C -16.3 °C 34097 hPa Calm     93 % 7.62 mm
03:50 -15.7 °C -16.3 °C 34097 hPa Calm     93 % 7.62 mm
03:55 -15.7 °C -16.3 °C 34097 hPa Calm     93 % 7.62 mm
04:00 -15.7 °C -16.3 °C 34097 hPa Calm     93 % 7.62 mm
04:04 -15.7 °C -16.2 °C 34097 hPa Calm     94 % 7.62 mm
04:06 -15.7 °C -16.2 °C 34097 hPa Calm     94 % 7.62 mm
04:10 -15.7 °C -16.2 °C 34097 hPa Calm     94 % 0 mm
04:12 -15.7 °C -16.2 °C 34097 hPa Calm     94 % 0 mm
04:17 -15.7 °C -16.2 °C 34097 hPa Calm     94 % 0 mm
04:20 -15.7 °C -16.2 °C 34097 hPa Calm     94 % 0 mm
04:25 -15.7 °C -16.2 °C 34097 hPa Calm     94 % 0 mm
04:29 -15.7 °C -16.2 °C 34063.2 hPa Calm     94 % 0 mm
04:34 -15.7 °C -16.2 °C 34063.2 hPa Calm     94 % 0 mm
04:38 -15.8 °C -16.3 °C 34063.2 hPa Calm     94 % 0 mm
04:43 -15.8 °C -16.3 °C 34063.2 hPa Calm     94 % 0 mm
04:47 -15.8 °C -16.3 °C 34063.2 hPa Calm     94 % 0 mm
04:51 -15.8 °C -16.3 °C 34063.2 hPa Calm     94 % 0 mm
04:56 -15.8 °C -16.3 °C 34063.2 hPa Calm     94 % 0 mm
04:57 -15.9 °C -16.4 °C 34029.3 hPa Calm     94 % 0 mm
05:02 -15.9 °C -16.4 °C 34029.3 hPa Calm     94 % 0 mm
05:08 -15.9 °C -16.4 °C 34029.3 hPa Calm     94 % 0 mm
05:13 -16 °C -16.5 °C 34063.2 hPa Calm     94 % 0 mm
05:18 -16.1 °C -16.6 °C 34063.2 hPa WNW 0.8 km/h 6.9 km/h 94 % 0 mm
05:19 -16.1 °C -16.6 °C 34063.2 hPa WNW 0.5 km/h 6.9 km/h 94 % 0 mm
05:24 -16.1 °C -16.6 °C 34063.2 hPa WSW 3.1 km/h 8.9 km/h 94 % 0 mm
05:27 -16.1 °C -16.6 °C 34063.2 hPa SW 3.9 km/h 8.9 km/h 94 % 0 mm
05:32 -16.1 °C -16.6 °C 34063.2 hPa SW 3.4 km/h 6.9 km/h 94 % 0 mm
05:39 -16.1 °C -16.6 °C 34063.2 hPa WNW 0.3 km/h 2.3 km/h 94 % 0 mm
05:43 -16.1 °C -16.6 °C 34097 hPa Calm   2.3 km/h 94 % 0 mm
05:49 -16.1 °C -16.6 °C 34097 hPa Calm     94 % 0 mm
05:54 -16.1 °C -16.6 °C 34097 hPa Calm     94 % 0 mm
05:58 -16.1 °C -16.6 °C 34097 hPa Calm     94 % 0 mm
06:05 -16.1 °C -16.6 °C 34097 hPa Calm     94 % 0 mm
06:10 -16.1 °C -16.6 °C 34097 hPa Calm     94 % 0 mm
06:12 -16.1 °C -16.6 °C 34097 hPa Calm     94 % 0 mm
06:14 -16.1 °C -16.6 °C 34097 hPa SSE 0.3 km/h 6.4 km/h 94 % 0 mm
06:18 -16.1 °C -16.6 °C 34097 hPa SSE 1 km/h 6.4 km/h 94 % 0 mm
06:23 -16.1 °C -16.6 °C 34097 hPa SSE 1 km/h 6.4 km/h 94 % 0 mm
06:24 -16.1 °C -16.6 °C 34097 hPa SSE 1 km/h 4.2 km/h 94 % 0 mm
06:26 -16.1 °C -16.5 °C 34097 hPa SSE 0.5 km/h 4.2 km/h 95 % 0 mm
06:31 -16.1 °C -16.5 °C 34130.9 hPa Calm     95 % 0 mm
06:32 -16.1 °C -16.5 °C 34130.9 hPa Calm     95 % 0 mm
06:37 -16.1 °C -16.5 °C 34130.9 hPa Calm     95 % 0 mm
06:38 -16.1 °C -16.5 °C 34130.9 hPa Calm     95 % 0 mm
06:43 -16.1 °C -16.5 °C 34063.2 hPa Calm     95 % 0 mm
06:45 -16.1 °C -16.5 °C 34063.2 hPa Calm     95 % 0 mm
06:50 -16.1 °C -16.5 °C 34063.2 hPa Calm     95 % 0 mm
06:55 -16.1 °C -16.5 °C 34063.2 hPa Calm     95 % 0 mm
06:56 -16.1 °C -16.5 °C 34063.2 hPa Calm     95 % 0 mm
07:01 -16.1 °C -16.5 °C 34097 hPa Calm     95 % 0 mm
07:06 -16.1 °C -16.5 °C 34097 hPa Calm     95 % 0 mm
07:11 -16.1 °C -16.5 °C 34097 hPa Calm     95 % 0 mm
07:13 -16.2 °C -16.6 °C 34097 hPa Calm     95 % 0 mm
07:19 -16.2 °C -16.6 °C 34097 hPa Calm     95 % 0 mm
07:20 -16.2 °C -16.6 °C 34097 hPa Calm     95 % 0 mm
07:25 -16.3 °C -16.7 °C 34097 hPa Calm     95 % 0 mm
07:30 -16.3 °C -16.7 °C 34097 hPa Calm     95 % 0 mm
07:35 -16.4 °C -16.8 °C 34097 hPa Calm     95 % 0 mm
07:39 -16.4 °C -16.8 °C 34097 hPa Calm     95 % 0 mm
07:43 -16.4 °C -16.8 °C 34130.9 hPa Calm     95 % 0 mm
07:45 -16.4 °C -16.8 °C 34130.9 hPa Calm     95 % 0 mm
07:50 -16.4 °C -16.8 °C 34130.9 hPa Calm     95 % 0 mm
07:55 -16.4 °C -16.8 °C 34130.9 hPa Calm     95 % 0 mm
07:57 -16.4 °C -16.8 °C 34130.9 hPa Calm     95 % 0 mm
07:58 -16.4 °C -16.8 °C 34130.9 hPa Calm     95 % 0 mm
08:02 -16.3 °C -16.7 °C 34130.9 hPa Calm     95 % 0 mm
08:05 -16.3 °C -16.7 °C 34130.9 hPa Calm     95 % 0 mm
08:09 -16.3 °C -16.7 °C 34130.9 hPa Calm     95 % 0 mm
08:14 -16.3 °C -16.7 °C 34130.9 hPa Calm     95 % 0 mm
08:16 -16.3 °C -16.7 °C 34130.9 hPa Calm     95 % 0 mm
08:18 -16.3 °C -16.7 °C 34130.9 hPa Calm     95 % 0 mm
08:23 -16.3 °C -16.7 °C 34130.9 hPa Calm     95 % 0 mm
08:24 -16.3 °C -16.7 °C 34130.9 hPa Calm     95 % 0 mm
08:29 -16.2 °C -16.6 °C 34164.7 hPa Calm     96 % 0 mm
08:32 -16.2 °C -16.6 °C 34164.7 hPa Calm     96 % 0 mm
08:36 -16.2 °C -16.6 °C 34164.7 hPa Calm     96 % 0 mm
08:40 -16.2 °C -16.6 °C 34164.7 hPa Calm     96 % 0 mm
08:44 -16.2 °C -16.6 °C 34130.9 hPa Calm     96 % 0 mm
08:46 -16.2 °C -16.5 °C 34130.9 hPa Calm     96 % 0 mm
08:49 -16.2 °C -16.5 °C 34130.9 hPa Calm     96 % 0 mm
08:54 -16.2 °C -16.5 °C 34130.9 hPa Calm     96 % 0 mm
09:04 -16.1 °C -16.4 °C 34164.7 hPa Calm     96 % 0 mm
09:09 -16.1 °C -16.4 °C 34164.7 hPa Calm     96 % 0 mm
09:10 -16.1 °C -16.4 °C 34164.7 hPa Calm     96 % 0 mm
09:16 -16.1 °C -16.4 °C 34164.7 hPa Calm     96 % 0 mm
09:17 -16.1 °C -16.4 °C 34164.7 hPa Calm     96 % 0 mm
09:22 -16.1 °C -16.4 °C 34164.7 hPa Calm     96 % 0 mm
09:23 -16.1 °C -16.4 °C 34164.7 hPa Calm     96 % 0 mm
09:28 -16 °C -16.3 °C 34164.7 hPa Calm     96 % 0 mm
09:33 -15.9 °C -16.3 °C 34164.7 hPa Calm     96 % 0 mm
09:40 -15.9 °C -16.3 °C 34164.7 hPa Calm   6.4 km/h 96 % 0 mm
09:44 -15.9 °C -16.2 °C 34130.9 hPa SSW 2.6 km/h 8 km/h 96 % 0 mm
09:45 -15.9 °C -16.2 °C 34130.9 hPa SSW 3.4 km/h 8 km/h 96 % 0 mm
09:49 -15.9 °C -16.2 °C 34130.9 hPa SSW 4.7 km/h 8 km/h 96 % 0 mm
09:55 -15.8 °C -16.2 °C 34130.9 hPa SSW 5 km/h 7.6 km/h 96 % 0 mm
10:00 -15.8 °C -16.1 °C 34164.7 hPa SSW 5.5 km/h 12.2 km/h 96 % 0 mm
10:01 -15.8 °C -16.1 °C 34164.7 hPa SSW 6 km/h 12.2 km/h 96 % 0 mm
10:06 -15.8 °C -16.1 °C 34164.7 hPa SW 5 km/h 12.2 km/h 96 % 0 mm
10:11 -15.7 °C -16.1 °C 34164.7 hPa SW 2.9 km/h 8 km/h 96 % 0 mm
10:13 -15.7 °C -16.1 °C 34164.7 hPa SW 1.8 km/h 8 km/h 96 % 0 mm
10:17 -15.7 °C -16.1 °C 34164.7 hPa SSW 0.3 km/h 2.9 km/h 96 % 0 mm
10:20 -15.7 °C -16 °C 34164.7 hPa Calm   5.6 km/h 96 % 0 mm
10:23 -15.7 °C -16 °C 34164.7 hPa SSW 0.5 km/h 5.6 km/h 96 % 0 mm
10:26 -15.6 °C -15.9 °C 34164.7 hPa SSW 0.5 km/h 5.6 km/h 96 % 0 mm
10:31 -15.6 °C -15.9 °C 34164.7 hPa North 0.3 km/h   96 % 0 mm
10:32 -15.6 °C -15.9 °C 34164.7 hPa Calm     96 % 0 mm
10:33 -15.6 °C -15.9 °C 34164.7 hPa Calm   5.1 km/h 96 % 0 mm
10:39 -15.6 °C -15.9 °C 34164.7 hPa SSW 0.3 km/h 5.1 km/h 96 % 0 mm
10:44 -15.5 °C -15.8 °C 34164.7 hPa SE 1.3 km/h 5.6 km/h 96 % 0 mm
10:52 -15.5 °C -15.8 °C 34164.7 hPa SE 2.3 km/h 6.4 km/h 96 % 0 mm
10:58 -15.5 °C -15.8 °C 34164.7 hPa SE 1.6 km/h 6.4 km/h 96 % 0 mm
11:03 -15.4 °C -15.8 °C 34164.7 hPa South 0.5 km/h 4.2 km/h 96 % 0 mm
11:08 -15.4 °C -15.8 °C 34164.7 hPa North 0.3 km/h   96 % 0 mm
11:09 -15.4 °C -15.8 °C 34164.7 hPa Calm     96 % 0 mm
11:13 -15.5 °C -15.8 °C 34164.7 hPa Calm     96 % 0 mm
11:15 -15.4 °C -15.8 °C 34164.7 hPa Calm     96 % 0 mm
11:20 -15.4 °C -15.8 °C 34164.7 hPa Calm     96 % 0 mm
11:21 -15.4 °C -15.8 °C 34164.7 hPa Calm     96 % 0 mm
11:26 -15.4 °C -15.7 °C 34164.7 hPa Calm     96 % 0 mm
11:28 -15.4 °C -15.7 °C 34164.7 hPa Calm     96 % 0 mm
11:31 -15.4 °C -15.7 °C 34164.7 hPa Calm     96 % 0 mm
11:36 -15.3 °C -15.7 °C 34164.7 hPa Calm     96 % 0 mm
11:37 -15.3 °C -15.7 °C 34164.7 hPa Calm     96 % 0 mm
11:42 -15.3 °C -15.7 °C 34164.7 hPa Calm     96 % 0 mm
11:46 -15.3 °C -15.6 °C 34164.7 hPa Calm     96 % 0 mm
11:49 -15.2 °C -15.6 °C 34164.7 hPa Calm     96 % 0 mm
11:54 -15.2 °C -15.5 °C 34164.7 hPa SE 1.6 km/h 7.6 km/h 96 % 0 mm
11:58 -15.2 °C -15.5 °C 34198.6 hPa SE 2.1 km/h 7.6 km/h 96 % 0 mm
12:03 -15.1 °C -15.4 °C 34198.6 hPa SE 3.9 km/h 8.9 km/h 96 % 0 mm
12:05 -15.1 °C -15.4 °C 34198.6 hPa SE 4.2 km/h 8.9 km/h 96 % 0 mm
12:10 -15 °C -15.3 °C 34198.6 hPa SE 6 km/h 8.9 km/h 96 % 0 mm
12:11 -15 °C -15.3 °C 34198.6 hPa SE 6.3 km/h 9.3 km/h 96 % 0 mm
12:16 -14.9 °C -15.3 °C 34198.6 hPa SE 4.3 km/h 9.3 km/h 96 % 0 mm
12:18 -14.9 °C -15.2 °C 34198.6 hPa SE 3.4 km/h 9.3 km/h 96 % 0 mm
12:25 -14.7 °C -15 °C 34198.6 hPa NE 0.5 km/h 8.9 km/h 96 % 0 mm
12:30 -14.6 °C -14.9 °C 34198.6 hPa ENE 1.8 km/h 8.9 km/h 96 % 0 mm
12:34 -14.4 °C -14.7 °C 34198.6 hPa NE 2.1 km/h 8.9 km/h 96 % 0 mm
12:40 -14.4 °C -14.7 °C 34198.6 hPa East 0.5 km/h 4.2 km/h 96 % 0 mm
12:47 -14.2 °C -14.6 °C 34164.7 hPa Calm   2.3 km/h 96 % 0 mm
12:52 -14.2 °C -14.5 °C 34164.7 hPa Calm   3.4 km/h 96 % 0 mm
12:57 -14.2 °C -14.5 °C 34164.7 hPa SSW 0.3 km/h 3.4 km/h 96 % 0 mm
13:02 -14.2 °C -14.6 °C 34164.7 hPa SW 0.3 km/h 3.4 km/h 95 % 0 mm
13:03 -14.2 °C -14.6 °C 34164.7 hPa SW 0.3 km/h 3.4 km/h 95 % 0 mm
13:09 -14.2 °C -14.6 °C 34164.7 hPa Calm     95 % 0 mm
13:15 -14.2 °C -14.6 °C 34164.7 hPa Calm   7.6 km/h 95 % 0 mm
13:19 -14.1 °C -14.6 °C 34164.7 hPa South 1.6 km/h 8.9 km/h 95 % 0 mm
13:22 -14.1 °C -14.5 °C 34164.7 hPa SSW 3.1 km/h 8.9 km/h 95 % 0 mm
13:27 -14.1 °C -14.5 °C 34164.7 hPa SW 5.6 km/h 11.1 km/h 95 % 0 mm
13:32 -14.1 °C -14.5 °C 34198.6 hPa SW 5.1 km/h 11.1 km/h 95 % 0 mm
13:33 -14.1 °C -14.5 °C 34198.6 hPa SW 5.1 km/h 11.1 km/h 95 % 0 mm
13:34 -14.1 °C -14.5 °C 34198.6 hPa SW 5 km/h 8.9 km/h 95 % 0 mm
13:39 -14.1 °C -14.5 °C 34198.6 hPa SW 5 km/h 8.9 km/h 95 % 0 mm
13:43 -14.1 °C -14.5 °C 34198.6 hPa SW 4.2 km/h 8.9 km/h 95 % 0 mm
13:44 -14.1 °C -14.5 °C 34198.6 hPa WSW 3.7 km/h 8.9 km/h 95 % 0 mm
13:48 -14.1 °C -14.6 °C 34198.6 hPa SW 1.6 km/h 9.8 km/h 94 % 0 mm
13:53 -14.1 °C -14.6 °C 34198.6 hPa SW 2.3 km/h 10.3 km/h 94 % 0 mm
13:56 -14.1 °C -14.6 °C 34198.6 hPa SW 4.7 km/h 11.1 km/h 94 % 0 mm
14:01 -14.2 °C -14.7 °C 34198.6 hPa SW 6.9 km/h 12.2 km/h 94 % 0 mm
14:02 -14.2 °C -14.7 °C 34198.6 hPa SW 6.9 km/h 12.2 km/h 94 % 0 mm
14:07 -14.2 °C -14.7 °C 34198.6 hPa SW 5.1 km/h 12.2 km/h 94 % 0 mm
14:15 -14.3 °C -14.8 °C 34198.6 hPa SW 2.1 km/h 8.9 km/h 93 % 0 mm
14:17 -14.3 °C -14.8 °C 34198.6 hPa SW 2.3 km/h 8.9 km/h 93 % 0 mm
14:21 -14.3 °C -14.8 °C 34198.6 hPa SW 3.9 km/h 8.9 km/h 93 % 0 mm
14:26 -14.3 °C -14.8 °C 34198.6 hPa SW 2.1 km/h 6.9 km/h 93 % 0 mm
14:27 -14.3 °C -14.8 °C 34198.6 hPa SW 1.8 km/h 8.9 km/h 93 % 0 mm
14:35 -14.3 °C -14.9 °C 34235.8 hPa West 2.9 km/h 8.9 km/h 93 % 0 mm
14:37 -14.3 °C -14.9 °C 34235.8 hPa WSW 2.6 km/h 7.6 km/h 93 % 0 mm
14:42 -14.3 °C -14.9 °C 34235.8 hPa SW 2.1 km/h 8.9 km/h 93 % 0 mm
14:43 -14.3 °C -14.9 °C 34235.8 hPa SW 2.6 km/h 9.3 km/h 93 % 0 mm
14:46 -14.3 °C -15 °C 34235.8 hPa SW 3.9 km/h 9.3 km/h 92 % 0 mm
14:49 -14.3 °C -15 °C 34235.8 hPa SSW 5.1 km/h 9.3 km/h 92 % 0 mm
14:54 -14.4 °C -15.1 °C 34235.8 hPa SW 6.8 km/h 10.3 km/h 92 % 0 mm
14:55 -14.4 °C -15.1 °C 34235.8 hPa SSW 6.3 km/h 10.3 km/h 92 % 0 mm
14:57 -14.4 °C -15.1 °C 34235.8 hPa SW 6.3 km/h 10.3 km/h 92 % 0 mm
15:02 -14.4 °C -15.1 °C 34235.8 hPa SW 3.7 km/h 7.6 km/h 92 % 0 mm
15:06 -14.4 °C -15.1 °C 34235.8 hPa SW 1.8 km/h 6.9 km/h 92 % 0 mm
15:11 -14.4 °C -15.1 °C 34235.8 hPa SW 2.1 km/h 9.3 km/h 92 % 0 mm
15:13 -14.4 °C -15.1 °C 34235.8 hPa SW 2.3 km/h 9.3 km/h 92 % 0 mm
15:20 -14.4 °C -15.1 °C 34235.8 hPa WSW 1.6 km/h 5.6 km/h 92 % 0 mm
15:23 -14.4 °C -15.1 °C 34235.8 hPa SW 0.5 km/h 5.6 km/h 92 % 0 mm
15:25 -14.4 °C -15.2 °C 34235.8 hPa SW 1 km/h 6.4 km/h 91 % 0 mm
15:29 -14.5 °C -15.2 °C 34235.8 hPa SW 2.3 km/h 6.4 km/h 92 % 0 mm
15:32 -14.5 °C -15.2 °C 34235.8 hPa SW 2.6 km/h 6.4 km/h 92 % 0 mm
15:37 -14.6 °C -15.2 °C 34235.8 hPa WSW 0.8 km/h 3.4 km/h 92 % 0 mm
15:44 -14.6 °C -15.3 °C 34198.6 hPa Calm     92 % 0 mm
15:49 -14.7 °C -15.4 °C 34198.6 hPa Calm     91 % 0 mm
15:50 -14.7 °C -15.4 °C 34198.6 hPa Calm     91 % 0 mm
15:52 -14.8 °C -15.5 °C 34198.6 hPa WSW 0.3 km/h 6.4 km/h 91 % 0 mm
15:56 -14.8 °C -15.6 °C 34198.6 hPa SW 1 km/h 6.4 km/h 91 % 0 mm
15:57 -14.8 °C -15.6 °C 34198.6 hPa SW 1.3 km/h 6.4 km/h 91 % 0 mm
16:02 -14.9 °C -15.7 °C 34235.8 hPa WSW 1.6 km/h 9.3 km/h 91 % 0 mm
16:03 -14.9 °C -15.7 °C 34235.8 hPa WSW 1.6 km/h 9.3 km/h 91 % 0 mm
16:08 -15 °C -15.7 °C 34235.8 hPa WSW 2.1 km/h 9.3 km/h 91 % 0 mm
16:09 -15.1 °C -15.9 °C 34235.8 hPa WSW 2.3 km/h 9.3 km/h 91 % 0 mm
16:14 -15.2 °C -15.9 °C 34235.8 hPa SW 1.6 km/h 5.6 km/h 91 % 0 mm
16:15 -15.2 °C -15.9 °C 34235.8 hPa SW 1 km/h 5.6 km/h 91 % 0 mm
16:20 -15.3 °C -16 °C 34235.8 hPa Calm     91 % 0 mm
16:21 -15.3 °C -16 °C 34235.8 hPa Calm     91 % 0 mm
16:22 -15.3 °C -16.1 °C 34235.8 hPa Calm     91 % 0 mm
16:27 -15.4 °C -16.2 °C 34235.8 hPa Calm     91 % 0 mm
16:29 -15.4 °C -16.2 °C 34269.7 hPa Calm     91 % 0 mm
16:34 -15.6 °C -16.3 °C 34269.7 hPa Calm   2.9 km/h 91 % 0 mm
16:36 -15.6 °C -16.3 °C 34269.7 hPa Calm   2.9 km/h 91 % 0 mm
16:39 -15.7 °C -16.4 °C 34269.7 hPa Calm   2.9 km/h 91 % 0 mm
16:44 -15.8 °C -16.5 °C 34269.7 hPa NNW 0.3 km/h 4.2 km/h 91 % 0 mm
16:49 -15.9 °C -16.6 °C 34269.7 hPa NW 0.5 km/h 4.2 km/h 91 % 0 mm
16:50 -15.9 °C -16.6 °C 34269.7 hPa NW 0.5 km/h 4.2 km/h 91 % 0 mm
16:55 -15.9 °C -16.7 °C 34269.7 hPa WNW 0.3 km/h 3.4 km/h 91 % 0 mm
17:05 -16.1 °C -16.8 °C 34269.7 hPa Calm     91 % 0 mm
17:06 -16.2 °C -16.9 °C 34269.7 hPa Calm     91 % 0 mm
17:11 -16.3 °C -17 °C 34269.7 hPa Calm     91 % 0 mm
17:13 -16.3 °C -17.1 °C 34269.7 hPa Calm     91 % 0 mm
17:18 -16.3 °C -17.1 °C 34269.7 hPa Calm     91 % 0 mm
17:23 -16.4 °C -17.2 °C 34269.7 hPa Calm     91 % 0 mm
17:28 -16.5 °C -17.2 °C 34269.7 hPa Calm     91 % 0 mm
17:29 -16.5 °C -17.2 °C 34269.7 hPa Calm     91 % 0 mm
17:34 -16.6 °C -17.3 °C 34269.7 hPa NNW 1.3 km/h 5.1 km/h 91 % 0 mm
17:37 -16.6 °C -17.3 °C 34269.7 hPa NNW 1.6 km/h 5.1 km/h 91 % 0 mm
17:42 -16.7 °C -17.4 °C 34269.7 hPa NNW 1.3 km/h 5.1 km/h 91 % 0 mm
17:47 -16.7 °C -17.4 °C 34303.6 hPa West 1 km/h 8 km/h 91 % 0 mm
17:50 -16.7 °C -17.4 °C 34303.6 hPa WNW 1 km/h 8 km/h 91 % 0 mm
17:53 -16.7 °C -17.4 °C 34303.6 hPa WNW 1.8 km/h 8 km/h 91 % 0 mm
17:56 -16.7 °C -17.4 °C 34303.6 hPa WSW 2.3 km/h 6.4 km/h 91 % 0 mm
18:01 -16.7 °C -17.4 °C 34303.6 hPa WSW 2.1 km/h 6.4 km/h 91 % 0 mm
18:05 -16.7 °C -17.4 °C 34303.6 hPa SW 1 km/h 6.4 km/h 91 % 0 mm
18:10 -16.6 °C -17.3 °C 34303.6 hPa North 0.5 km/h 6.4 km/h 91 % 0 mm
18:14 -16.6 °C -17.3 °C 34303.6 hPa North 0.5 km/h 6.4 km/h 91 % 0 mm
18:15 -16.6 °C -17.2 °C 34303.6 hPa North 0.5 km/h 6.4 km/h 92 % 0 mm
18:20 -16.5 °C -17.2 °C 34303.6 hPa Calm     92 % 0 mm
18:24 -16.4 °C -17.1 °C 34303.6 hPa Calm     92 % 0 mm
18:30 -16.4 °C -17.1 °C 34303.6 hPa Calm     92 % 0 mm
18:35 -16.3 °C -17 °C 34303.6 hPa NNW 0.3 km/h 7.6 km/h 92 % 0 mm
18:39 -16.3 °C -16.8 °C 34303.6 hPa NNW 1 km/h 7.6 km/h 93 % 0 mm
18:44 -16.3 °C -16.8 °C 34303.6 hPa NNW 2.3 km/h 8 km/h 93 % 0 mm
18:47 -16.3 °C -16.8 °C 34303.6 hPa NNW 1.6 km/h 8 km/h 93 % 0 mm
18:52 -16.3 °C -16.8 °C 34303.6 hPa West 1 km/h 8 km/h 93 % 0 mm
18:56 -16.3 °C -16.8 °C 34303.6 hPa West 2.6 km/h 8 km/h 93 % 0 mm
19:07 -16.3 °C -16.8 °C 34303.6 hPa NW 0.3 km/h 5.1 km/h 93 % 0 mm
19:10 -16.3 °C -16.8 °C 34303.6 hPa West 0.3 km/h 3.4 km/h 93 % 0 mm
19:15 -16.3 °C -16.9 °C 34303.6 hPa Calm   3.4 km/h 93 % 0 mm
19:16 -16.3 °C -16.9 °C 34303.6 hPa Calm   3.4 km/h 93 % 0 mm
19:21 -16.3 °C -16.9 °C 34303.6 hPa Calm   2.3 km/h 93 % 0 mm
19:26 -16.4 °C -16.9 °C 34303.6 hPa Calm   4.2 km/h 93 % 0 mm
19:29 -16.4 °C -16.9 °C 34269.7 hPa NNW 1.3 km/h 8 km/h 94 % 0 mm
19:34 -16.4 °C -16.9 °C 34269.7 hPa NNW 2.6 km/h 8 km/h 94 % 0 mm
19:39 -16.5 °C -17 °C 34269.7 hPa NNW 1.6 km/h 6.4 km/h 94 % 0 mm
19:40 -16.5 °C -17 °C 34269.7 hPa NNW 1.3 km/h 6.4 km/h 94 % 0 mm
19:45 -16.5 °C -17 °C 34269.7 hPa Calm     94 % 0 mm
19:47 -16.6 °C -17.1 °C 34269.7 hPa Calm     94 % 0 mm
19:51 -16.6 °C -17.1 °C 34269.7 hPa Calm     94 % 0 mm
19:52 -16.6 °C -17.1 °C 34269.7 hPa Calm     94 % 0 mm
19:56 -16.6 °C -17.1 °C 34269.7 hPa Calm     94 % 0 mm
19:57 -16.6 °C -17.1 °C 34269.7 hPa Calm     94 % 0 mm
20:03 -16.6 °C -17.1 °C 34303.6 hPa WNW 0.5 km/h 6.4 km/h 94 % 0 mm
20:08 -16.7 °C -17.2 °C 34303.6 hPa NW 0.5 km/h 6.4 km/h 94 % 0 mm
20:13 -16.7 °C -17.2 °C 34303.6 hPa NNW 0.5 km/h 5.6 km/h 94 % 0 mm
20:14 -16.7 °C -17.2 °C 34303.6 hPa NNW 0.5 km/h 5.6 km/h 94 % 0 mm
20:19 -16.7 °C -17.2 °C 34303.6 hPa NW 0.3 km/h 3.4 km/h 94 % 0 mm
20:24 -16.7 °C -17.2 °C 34303.6 hPa NNE 0.3 km/h 4.2 km/h 94 % 0 mm
20:29 -16.7 °C -17.2 °C 34303.6 hPa NE 0.3 km/h 4.2 km/h 94 % 0 mm
20:34 -16.8 °C -17.3 °C 34303.6 hPa Calm   4.2 km/h 94 % 0 mm
20:36 -16.8 °C -17.2 °C 34303.6 hPa WSW 0.5 km/h 4.2 km/h 95 % 0 mm
20:39 -16.8 °C -17.2 °C 34303.6 hPa WSW 0.5 km/h 4.2 km/h 95 % 0 mm
20:42 -16.8 °C -17.2 °C 34303.6 hPa WSW 0.8 km/h 4.2 km/h 95 % 0 mm
20:45 -16.8 °C -17.2 °C 34303.6 hPa North 0.3 km/h   95 % 0 mm
20:51 -16.8 °C -17.2 °C 34303.6 hPa Calm     95 % 0 mm
20:56 -16.8 °C -17.2 °C 34303.6 hPa NNW 0.3 km/h 5.1 km/h 95 % 0 mm
20:57 -16.8 °C -17.2 °C 34303.6 hPa NNW 0.5 km/h 5.1 km/h 95 % 0 mm
21:02 -16.9 °C -17.3 °C 34337.4 hPa NNW 0.8 km/h 5.6 km/h 95 % 0 mm
21:06 -16.9 °C -17.3 °C 34337.4 hPa NNW 0.3 km/h 5.6 km/h 95 % 0 mm
21:14 -16.9 °C -17.3 °C 34337.4 hPa NNW 0.3 km/h 4.2 km/h 95 % 0 mm
21:18 -16.9 °C -17.3 °C 34337.4 hPa NNW 0.3 km/h 4.2 km/h 95 % 0 mm
21:23 -16.9 °C -17.3 °C 34337.4 hPa Calm     95 % 0 mm
21:25 -16.9 °C -17.3 °C 34337.4 hPa Calm   2.9 km/h 95 % 0 mm
21:26 -16.9 °C -17.3 °C 34337.4 hPa Calm   6.9 km/h 95 % 0 mm
21:32 -16.9 °C -17.3 °C 34371.3 hPa North 1.8 km/h 8.9 km/h 95 % 0 mm
21:34 -16.9 °C -17.3 °C 34371.3 hPa NNW 2.9 km/h 9.3 km/h 95 % 0 mm
21:39 -16.9 °C -17.3 °C 34371.3 hPa WNW 5 km/h 11.1 km/h 95 % 0 mm
21:41 -16.9 °C -17.3 °C 34371.3 hPa WNW 4.3 km/h 11.1 km/h 95 % 0 mm
21:46 -16.9 °C -17.3 °C 34371.3 hPa WSW 1.8 km/h 9.3 km/h 95 % 0 mm
21:51 -16.9 °C -17.3 °C 34371.3 hPa WSW 2.1 km/h 9.3 km/h 95 % 0 mm
21:52 -16.9 °C -17.3 °C 34371.3 hPa WSW 2.3 km/h 9.3 km/h 95 % 0 mm
21:57 -16.9 °C -17.3 °C 34371.3 hPa WNW 3.7 km/h 8 km/h 95 % 0 mm
21:59 -16.9 °C -17.3 °C 34371.3 hPa WNW 3.1 km/h 8 km/h 95 % 0 mm
22:05 -16.9 °C -17.3 °C 34371.3 hPa NNW 1.8 km/h 8 km/h 95 % 0 mm
22:10 -16.9 °C -17.3 °C 34371.3 hPa ENE 0.8 km/h 6.9 km/h 95 % 0 mm
22:11 -16.9 °C -17.3 °C 34371.3 hPa ENE 0.8 km/h 6.9 km/h 95 % 0 mm
22:13 -16.9 °C -17.3 °C 34371.3 hPa NE 0.8 km/h 6.9 km/h 95 % 0 mm
22:16 -16.9 °C -17.3 °C 34371.3 hPa West 1.8 km/h 8 km/h 95 % 0 mm
22:21 -16.9 °C -17.3 °C 34371.3 hPa West 2.9 km/h 8 km/h 95 % 0 mm
22:22 -16.9 °C -17.3 °C 34371.3 hPa West 2.9 km/h 8 km/h 95 % 0 mm
22:27 -16.9 °C -17.3 °C 34371.3 hPa WNW 1.3 km/h 6.9 km/h 95 % 0 mm
22:28 -16.9 °C -17.3 °C 34371.3 hPa WNW 1 km/h 6.9 km/h 95 % 0 mm
22:33 -16.9 °C -17.3 °C 34371.3 hPa North 0.3 km/h 4.2 km/h 95 % 0 mm
22:36 -16.9 °C -17.3 °C 34371.3 hPa NW 0.5 km/h 5.1 km/h 95 % 0 mm
22:41 -16.9 °C -17.3 °C 34371.3 hPa NW 0.8 km/h 5.1 km/h 95 % 0 mm
22:49 -17 °C -17.3 °C 34337.4 hPa NW 1.6 km/h 7.6 km/h 96 % 0 mm
22:54 -16.9 °C -17.3 °C 34337.4 hPa WNW 1 km/h 6.4 km/h 96 % 0 mm
22:55 -16.9 °C -17.3 °C 34337.4 hPa North 1 km/h 5.1 km/h 96 % 0 mm
22:56 -16.9 °C -17.3 °C 34337.4 hPa NNE 0.8 km/h 6.4 km/h 96 % 0 mm
23:01 -16.9 °C -17.3 °C 34337.4 hPa NE 1 km/h 6.9 km/h 96 % 0 mm
23:06 -16.9 °C -17.3 °C 34337.4 hPa NNE 1.6 km/h 6.9 km/h 96 % 0 mm
23:08 -16.9 °C -17.3 °C 34337.4 hPa North 1.6 km/h 6.9 km/h 96 % 0 mm
23:09 -16.9 °C -17.3 °C 34337.4 hPa North 1.3 km/h 6.9 km/h 96 % 0 mm
23:14 -17 °C -17.3 °C 34371.3 hPa NNW 2.6 km/h 7.6 km/h 96 % 0 mm
23:17 -17 °C -17.3 °C 34371.3 hPa NW 1.8 km/h 7.6 km/h 96 % 0 mm
23:19 -17 °C -17.3 °C 34371.3 hPa NW 1.6 km/h 7.6 km/h 96 % 0 mm
23:24 -17 °C -17.3 °C 34371.3 hPa NW 0.8 km/h 6.9 km/h 96 % 0 mm
23:26 -17.1 °C -17.4 °C 34371.3 hPa NNW 1 km/h 6.9 km/h 96 % 0 mm
23:31 -17.1 °C -17.4 °C 34371.3 hPa NNW 1 km/h 6.9 km/h 96 % 0 mm
23:32 -17.1 °C -17.4 °C 34371.3 hPa NNW 0.8 km/h 6.9 km/h 96 % 0 mm
23:37 -17.1 °C -17.4 °C 34371.3 hPa NNW 0.5 km/h 4.2 km/h 96 % 0 mm
23:39 -17.1 °C -17.4 °C 34371.3 hPa NNW 0.5 km/h 4.2 km/h 96 % 0 mm
23:44 -17.1 °C -17.4 °C 34371.3 hPa NNW 0.5 km/h 4.2 km/h 96 % 0 mm
23:45 -17.1 °C -17.4 °C 34371.3 hPa NNW 0.3 km/h 4.2 km/h 96 % 0 mm
23:50 -17.1 °C -17.4 °C 34371.3 hPa NW 0.5 km/h 5.6 km/h 96 % 0 mm
23:51 -17.1 °C -17.4 °C 34371.3 hPa NW 0.5 km/h 5.6 km/h 96 % 0 mm
23:56 -17.1 °C -17.4 °C 34371.3 hPa NW 0.5 km/h 5.6 km/h 96 % 0 mm
Vremenska postaja Senovo
Podatki zbrani iz Weather Underground - 3.5 mb

Script developed by  Jim McMurry - jmcmurry@mwt.net Adapted for the template by  Wim van der Kuil - Leuven-Template.eu

Vremenski podatki so objavljeni na:

European Weather Network

WeatherCloud

Weather Underground

AWEKAS

HAMweather, WeatherForYou, PWS Weather

MapView

Geostik

Slovenia weather network

Oprema, ki se uporablja:

Vremenski program
Cumulus

Vremenski server
Asus

Cumulus

Asus